sensor_id;sensor_type;location;lat;lon;timestamp;P1;durP1;ratioP1;P2;durP2;ratioP2
65368;SDS011;51970;53.484;49.488;2023-07-24T00:01:40;7.13;;;2.80;;
65368;SDS011;51970;53.484;49.488;2023-07-24T00:04:07;7.28;;;3.20;;
65368;SDS011;51970;53.484;49.488;2023-07-24T00:06:33;8.70;;;3.15;;
65368;SDS011;51970;53.484;49.488;2023-07-24T00:09:00;8.02;;;3.92;;
65368;SDS011;51970;53.484;49.488;2023-07-24T00:11:26;6.78;;;2.90;;
65368;SDS011;51970;53.484;49.488;2023-07-24T00:13:52;6.07;;;2.97;;
65368;SDS011;51970;53.484;49.488;2023-07-24T00:16:18;7.43;;;2.85;;
65368;SDS011;51970;53.484;49.488;2023-07-24T00:18:44;6.78;;;2.97;;
65368;SDS011;51970;53.484;49.488;2023-07-24T00:21:11;8.77;;;3.13;;
65368;SDS011;51970;53.484;49.488;2023-07-24T00:23:39;6.30;;;3.30;;
65368;SDS011;51970;53.484;49.488;2023-07-24T00:26:05;6.75;;;3.88;;
65368;SDS011;51970;53.484;49.488;2023-07-24T00:28:32;8.10;;;2.88;;
65368;SDS011;51970;53.484;49.488;2023-07-24T00:30:58;6.13;;;2.85;;
65368;SDS011;51970;53.484;49.488;2023-07-24T00:33:25;5.97;;;2.92;;
65368;SDS011;51970;53.484;49.488;2023-07-24T00:35:54;9.02;;;3.40;;
65368;SDS011;51970;53.484;49.488;2023-07-24T00:38:23;9.82;;;4.38;;
65368;SDS011;51970;53.484;49.488;2023-07-24T00:40:50;6.40;;;2.35;;
65368;SDS011;51970;53.484;49.488;2023-07-24T00:43:16;11.88;;;3.35;;
65368;SDS011;51970;53.484;49.488;2023-07-24T00:45:42;7.07;;;3.50;;
65368;SDS011;51970;53.484;49.488;2023-07-24T00:48:11;7.55;;;3.15;;
65368;SDS011;51970;53.484;49.488;2023-07-24T00:50:37;6.13;;;3.25;;
65368;SDS011;51970;53.484;49.488;2023-07-24T00:53:04;7.28;;;3.25;;
65368;SDS011;51970;53.484;49.488;2023-07-24T00:55:30;5.82;;;2.75;;
65368;SDS011;51970;53.484;49.488;2023-07-24T00:57:57;6.28;;;2.70;;
65368;SDS011;51970;53.484;49.488;2023-07-24T01:00:25;7.28;;;3.80;;
65368;SDS011;51970;53.484;49.488;2023-07-24T01:02:52;8.70;;;3.55;;
65368;SDS011;51970;53.484;49.488;2023-07-24T01:05:19;6.40;;;2.88;;
65368;SDS011;51970;53.484;49.488;2023-07-24T01:07:48;8.32;;;3.35;;
65368;SDS011;51970;53.484;49.488;2023-07-24T01:10:14;8.60;;;5.00;;
65368;SDS011;51970;53.484;49.488;2023-07-24T01:13:01;9.35;;;3.38;;
65368;SDS011;51970;53.484;49.488;2023-07-24T01:15:48;7.18;;;3.33;;
65368;SDS011;51970;53.484;49.488;2023-07-24T01:18:24;7.10;;;3.13;;
65368;SDS011;51970;53.484;49.488;2023-07-24T01:20:54;8.25;;;3.05;;
65368;SDS011;51970;53.484;49.488;2023-07-24T01:23:33;6.63;;;3.33;;
65368;SDS011;51970;53.484;49.488;2023-07-24T01:26:33;5.93;;;3.42;;
65368;SDS011;51970;53.484;49.488;2023-07-24T01:29:01;17.67;;;2.85;;
65368;SDS011;51970;53.484;49.488;2023-07-24T01:31:28;8.75;;;3.42;;
65368;SDS011;51970;53.484;49.488;2023-07-24T01:33:55;7.72;;;2.85;;
65368;SDS011;51970;53.484;49.488;2023-07-24T01:36:21;7.65;;;2.42;;
65368;SDS011;51970;53.484;49.488;2023-07-24T01:38:48;7.38;;;3.03;;
65368;SDS011;51970;53.484;49.488;2023-07-24T01:41:15;5.97;;;3.00;;
65368;SDS011;51970;53.484;49.488;2023-07-24T01:43:42;7.80;;;2.67;;
65368;SDS011;51970;53.484;49.488;2023-07-24T01:46:09;6.00;;;3.22;;
65368;SDS011;51970;53.484;49.488;2023-07-24T01:48:35;7.15;;;2.92;;
65368;SDS011;51970;53.484;49.488;2023-07-24T01:51:01;6.70;;;2.92;;
65368;SDS011;51970;53.484;49.488;2023-07-24T01:53:28;6.75;;;3.28;;
65368;SDS011;51970;53.484;49.488;2023-07-24T01:55:54;9.60;;;3.05;;
65368;SDS011;51970;53.484;49.488;2023-07-24T01:58:20;7.65;;;2.55;;
65368;SDS011;51970;53.484;49.488;2023-07-24T02:00:47;5.75;;;2.85;;
65368;SDS011;51970;53.484;49.488;2023-07-24T02:03:13;6.13;;;2.83;;
65368;SDS011;51970;53.484;49.488;2023-07-24T02:05:39;6.78;;;3.15;;
65368;SDS011;51970;53.484;49.488;2023-07-24T02:08:05;6.07;;;2.65;;
65368;SDS011;51970;53.484;49.488;2023-07-24T02:10:32;5.88;;;2.70;;
65368;SDS011;51970;53.484;49.488;2023-07-24T02:13:02;7.80;;;3.00;;
65368;SDS011;51970;53.484;49.488;2023-07-24T02:15:28;6.45;;;3.28;;
65368;SDS011;51970;53.484;49.488;2023-07-24T02:17:54;7.00;;;3.30;;
65368;SDS011;51970;53.484;49.488;2023-07-24T02:20:20;7.47;;;3.20;;
65368;SDS011;51970;53.484;49.488;2023-07-24T02:22:46;8.35;;;3.90;;
65368;SDS011;51970;53.484;49.488;2023-07-24T02:25:13;8.02;;;3.70;;
65368;SDS011;51970;53.484;49.488;2023-07-24T02:27:39;10.80;;;3.40;;
65368;SDS011;51970;53.484;49.488;2023-07-24T02:30:05;7.07;;;3.47;;
65368;SDS011;51970;53.484;49.488;2023-07-24T02:32:32;6.45;;;2.78;;
65368;SDS011;51970;53.484;49.488;2023-07-24T02:34:58;7.53;;;3.35;;
65368;SDS011;51970;53.484;49.488;2023-07-24T02:37:24;8.07;;;3.13;;
65368;SDS011;51970;53.484;49.488;2023-07-24T02:39:51;8.05;;;3.28;;
65368;SDS011;51970;53.484;49.488;2023-07-24T02:42:19;7.05;;;3.53;;
65368;SDS011;51970;53.484;49.488;2023-07-24T02:44:45;6.53;;;3.22;;
65368;SDS011;51970;53.484;49.488;2023-07-24T02:47:11;6.15;;;3.20;;
65368;SDS011;51970;53.484;49.488;2023-07-24T02:49:37;7.30;;;3.20;;
65368;SDS011;51970;53.484;49.488;2023-07-24T02:52:04;6.68;;;2.85;;
65368;SDS011;51970;53.484;49.488;2023-07-24T02:54:31;9.60;;;2.72;;
65368;SDS011;51970;53.484;49.488;2023-07-24T02:56:57;11.50;;;2.92;;
65368;SDS011;51970;53.484;49.488;2023-07-24T02:59:23;8.82;;;2.85;;
65368;SDS011;51970;53.484;49.488;2023-07-24T03:01:49;7.85;;;2.38;;
65368;SDS011;51970;53.484;49.488;2023-07-24T03:04:16;8.15;;;2.97;;
65368;SDS011;51970;53.484;49.488;2023-07-24T03:06:42;6.30;;;2.78;;
65368;SDS011;51970;53.484;49.488;2023-07-24T03:09:08;10.18;;;3.55;;
65368;SDS011;51970;53.484;49.488;2023-07-24T03:11:34;6.45;;;2.78;;
65368;SDS011;51970;53.484;49.488;2023-07-24T03:14:01;8.85;;;3.42;;
65368;SDS011;51970;53.484;49.488;2023-07-24T03:16:27;5.75;;;2.72;;
65368;SDS011;51970;53.484;49.488;2023-07-24T03:18:53;6.90;;;3.13;;
65368;SDS011;51970;53.484;49.488;2023-07-24T03:21:20;6.78;;;3.15;;
65368;SDS011;51970;53.484;49.488;2023-07-24T03:23:46;8.30;;;4.82;;
65368;SDS011;51970;53.484;49.488;2023-07-24T03:26:13;5.88;;;2.63;;
65368;SDS011;51970;53.484;49.488;2023-07-24T03:28:39;7.00;;;2.92;;
65368;SDS011;51970;53.484;49.488;2023-07-24T03:31:05;6.80;;;3.00;;
65368;SDS011;51970;53.484;49.488;2023-07-24T03:33:31;8.32;;;3.17;;
65368;SDS011;51970;53.484;49.488;2023-07-24T03:35:58;7.65;;;2.53;;
65368;SDS011;51970;53.484;49.488;2023-07-24T03:38:24;7.18;;;3.22;;
65368;SDS011;51970;53.484;49.488;2023-07-24T03:40:50;8.82;;;5.35;;
65368;SDS011;51970;53.484;49.488;2023-07-24T03:43:16;8.77;;;2.70;;
65368;SDS011;51970;53.484;49.488;2023-07-24T03:45:43;8.68;;;3.13;;
65368;SDS011;51970;53.484;49.488;2023-07-24T03:48:10;7.22;;;3.38;;
65368;SDS011;51970;53.484;49.488;2023-07-24T03:50:36;6.32;;;2.97;;
65368;SDS011;51970;53.484;49.488;2023-07-24T03:53:02;7.30;;;3.25;;
65368;SDS011;51970;53.484;49.488;2023-07-24T03:55:29;10.25;;;3.45;;
65368;SDS011;51970;53.484;49.488;2023-07-24T03:57:55;10.23;;;4.35;;
65368;SDS011;51970;53.484;49.488;2023-07-24T04:00:21;8.57;;;3.00;;
65368;SDS011;51970;53.484;49.488;2023-07-24T04:02:47;7.65;;;3.25;;
65368;SDS011;51970;53.484;49.488;2023-07-24T04:05:14;7.88;;;2.95;;
65368;SDS011;51970;53.484;49.488;2023-07-24T04:07:40;5.85;;;2.22;;
65368;SDS011;51970;53.484;49.488;2023-07-24T04:10:07;6.82;;;2.67;;
65368;SDS011;51970;53.484;49.488;2023-07-24T04:12:33;9.15;;;4.32;;
65368;SDS011;51970;53.484;49.488;2023-07-24T04:14:59;6.75;;;3.25;;
65368;SDS011;51970;53.484;49.488;2023-07-24T04:17:25;6.93;;;3.03;;
65368;SDS011;51970;53.484;49.488;2023-07-24T04:19:52;5.97;;;3.03;;
65368;SDS011;51970;53.484;49.488;2023-07-24T04:22:18;6.63;;;2.72;;
65368;SDS011;51970;53.484;49.488;2023-07-24T04:24:44;6.88;;;2.70;;
65368;SDS011;51970;53.484;49.488;2023-07-24T04:27:11;6.13;;;3.00;;
65368;SDS011;51970;53.484;49.488;2023-07-24T04:29:37;7.30;;;2.67;;
65368;SDS011;51970;53.484;49.488;2023-07-24T04:32:04;10.45;;;2.58;;
65368;SDS011;51970;53.484;49.488;2023-07-24T04:34:30;6.35;;;2.83;;
65368;SDS011;51970;53.484;49.488;2023-07-24T04:36:59;7.72;;;3.17;;
65368;SDS011;51970;53.484;49.488;2023-07-24T04:39:25;7.30;;;3.25;;
65368;SDS011;51970;53.484;49.488;2023-07-24T04:41:52;7.43;;;2.95;;
65368;SDS011;51970;53.484;49.488;2023-07-24T04:44:18;6.65;;;2.90;;
65368;SDS011;51970;53.484;49.488;2023-07-24T04:46:44;7.18;;;3.53;;
65368;SDS011;51970;53.484;49.488;2023-07-24T04:49:10;11.18;;;4.57;;
65368;SDS011;51970;53.484;49.488;2023-07-24T04:51:37;6.97;;;3.42;;
65368;SDS011;51970;53.484;49.488;2023-07-24T04:54:03;5.57;;;2.67;;
65368;SDS011;51970;53.484;49.488;2023-07-24T04:56:29;8.80;;;5.35;;
65368;SDS011;51970;53.484;49.488;2023-07-24T04:58:55;6.50;;;3.42;;
65368;SDS011;51970;53.484;49.488;2023-07-24T05:01:22;6.65;;;3.22;;
65368;SDS011;51970;53.484;49.488;2023-07-24T05:03:48;7.72;;;2.92;;
65368;SDS011;51970;53.484;49.488;2023-07-24T05:06:14;10.40;;;3.13;;
65368;SDS011;51970;53.484;49.488;2023-07-24T05:08:40;7.47;;;3.50;;
65368;SDS011;51970;53.484;49.488;2023-07-24T05:11:06;7.82;;;3.17;;
65368;SDS011;51970;53.484;49.488;2023-07-24T05:13:33;9.95;;;5.07;;
65368;SDS011;51970;53.484;49.488;2023-07-24T05:15:59;7.97;;;3.85;;
65368;SDS011;51970;53.484;49.488;2023-07-24T05:18:25;7.07;;;3.47;;
65368;SDS011;51970;53.484;49.488;2023-07-24T05:20:51;8.05;;;3.55;;
65368;SDS011;51970;53.484;49.488;2023-07-24T05:23:18;6.72;;;3.55;;
65368;SDS011;51970;53.484;49.488;2023-07-24T05:25:44;9.60;;;5.00;;
65368;SDS011;51970;53.484;49.488;2023-07-24T05:28:10;10.40;;;5.10;;
65368;SDS011;51970;53.484;49.488;2023-07-24T05:30:36;7.35;;;2.70;;
65368;SDS011;51970;53.484;49.488;2023-07-24T05:33:03;6.57;;;2.97;;
65368;SDS011;51970;53.484;49.488;2023-07-24T05:35:29;8.98;;;3.10;;
65368;SDS011;51970;53.484;49.488;2023-07-24T05:37:55;8.38;;;3.67;;
65368;SDS011;51970;53.484;49.488;2023-07-24T05:40:21;6.70;;;2.72;;
65368;SDS011;51970;53.484;49.488;2023-07-24T05:42:49;10.93;;;2.90;;
65368;SDS011;51970;53.484;49.488;2023-07-24T05:45:16;9.35;;;4.18;;
65368;SDS011;51970;53.484;49.488;2023-07-24T05:47:42;13.63;;;4.55;;
65368;SDS011;51970;53.484;49.488;2023-07-24T05:50:08;8.13;;;3.78;;
65368;SDS011;51970;53.484;49.488;2023-07-24T05:52:35;9.52;;;3.70;;
65368;SDS011;51970;53.484;49.488;2023-07-24T05:55:01;10.52;;;2.90;;
65368;SDS011;51970;53.484;49.488;2023-07-24T05:57:28;9.00;;;4.78;;
65368;SDS011;51970;53.484;49.488;2023-07-24T05:59:54;8.23;;;4.60;;
65368;SDS011;51970;53.484;49.488;2023-07-24T06:02:21;6.68;;;3.22;;
65368;SDS011;51970;53.484;49.488;2023-07-24T06:04:47;6.93;;;3.83;;
65368;SDS011;51970;53.484;49.488;2023-07-24T06:07:14;11.38;;;3.00;;
65368;SDS011;51970;53.484;49.488;2023-07-24T06:09:40;11.80;;;3.85;;
65368;SDS011;51970;53.484;49.488;2023-07-24T06:12:06;6.28;;;3.65;;
65368;SDS011;51970;53.484;49.488;2023-07-24T06:17:03;12.18;;;5.97;;
65368;SDS011;51970;53.484;49.488;2023-07-24T06:19:29;24.80;;;6.85;;
65368;SDS011;51970;53.484;49.488;2023-07-24T06:21:55;13.80;;;6.10;;
65368;SDS011;51970;53.484;49.488;2023-07-24T06:24:22;49.95;;;5.90;;
65368;SDS011;51970;53.484;49.488;2023-07-24T06:26:49;18.10;;;6.38;;
65368;SDS011;51970;53.484;49.488;2023-07-24T06:29:16;15.68;;;6.47;;
65368;SDS011;51970;53.484;49.488;2023-07-24T06:31:42;15.05;;;7.15;;
65368;SDS011;51970;53.484;49.488;2023-07-24T06:34:08;14.52;;;5.93;;
65368;SDS011;51970;53.484;49.488;2023-07-24T06:36:34;12.18;;;6.85;;
65368;SDS011;51970;53.484;49.488;2023-07-24T06:39:01;14.13;;;5.68;;
65368;SDS011;51970;53.484;49.488;2023-07-24T06:41:27;12.63;;;5.95;;
65368;SDS011;51970;53.484;49.488;2023-07-24T06:43:53;18.48;;;7.00;;
65368;SDS011;51970;53.484;49.488;2023-07-24T06:46:19;16.30;;;6.45;;
65368;SDS011;51970;53.484;49.488;2023-07-24T06:48:46;9.07;;;6.05;;
65368;SDS011;51970;53.484;49.488;2023-07-24T06:51:12;7.53;;;5.18;;
65368;SDS011;51970;53.484;49.488;2023-07-24T06:53:38;11.55;;;5.25;;
65368;SDS011;51970;53.484;49.488;2023-07-24T06:56:04;7.78;;;5.07;;
65368;SDS011;51970;53.484;49.488;2023-07-24T06:58:31;11.07;;;5.28;;
65368;SDS011;51970;53.484;49.488;2023-07-24T07:00:57;8.25;;;5.25;;
65368;SDS011;51970;53.484;49.488;2023-07-24T07:03:23;10.45;;;4.43;;
65368;SDS011;51970;53.484;49.488;2023-07-24T07:05:49;7.80;;;5.47;;
65368;SDS011;51970;53.484;49.488;2023-07-24T07:08:15;8.38;;;4.72;;
65368;SDS011;51970;53.484;49.488;2023-07-24T07:10:42;11.52;;;4.93;;
65368;SDS011;51970;53.484;49.488;2023-07-24T07:13:08;9.07;;;4.68;;
65368;SDS011;51970;53.484;49.488;2023-07-24T07:15:35;6.60;;;2.95;;
65368;SDS011;51970;53.484;49.488;2023-07-24T07:18:02;9.40;;;6.00;;
65368;SDS011;51970;53.484;49.488;2023-07-24T07:20:28;12.60;;;5.53;;
65368;SDS011;51970;53.484;49.488;2023-07-24T07:22:54;7.28;;;4.95;;
65368;SDS011;51970;53.484;49.488;2023-07-24T07:25:21;5.93;;;2.35;;
65368;SDS011;51970;53.484;49.488;2023-07-24T07:27:47;9.88;;;4.80;;
65368;SDS011;51970;53.484;49.488;2023-07-24T07:30:13;6.63;;;3.50;;
65368;SDS011;51970;53.484;49.488;2023-07-24T07:32:39;9.98;;;6.05;;
65368;SDS011;51970;53.484;49.488;2023-07-24T07:35:06;9.18;;;5.43;;
65368;SDS011;51970;53.484;49.488;2023-07-24T07:37:33;9.35;;;5.35;;
65368;SDS011;51970;53.484;49.488;2023-07-24T07:39:59;8.90;;;4.95;;
65368;SDS011;51970;53.484;49.488;2023-07-24T07:42:25;10.23;;;4.90;;
65368;SDS011;51970;53.484;49.488;2023-07-24T07:44:51;8.63;;;4.80;;
65368;SDS011;51970;53.484;49.488;2023-07-24T07:47:17;7.30;;;4.00;;
65368;SDS011;51970;53.484;49.488;2023-07-24T07:49:44;10.20;;;4.82;;
65368;SDS011;51970;53.484;49.488;2023-07-24T07:52:10;9.50;;;4.68;;
65368;SDS011;51970;53.484;49.488;2023-07-24T07:54:36;10.10;;;4.95;;
65368;SDS011;51970;53.484;49.488;2023-07-24T07:57:03;8.57;;;4.70;;
65368;SDS011;51970;53.484;49.488;2023-07-24T07:59:30;7.53;;;4.80;;
65368;SDS011;51970;53.484;49.488;2023-07-24T08:01:56;7.25;;;4.63;;
65368;SDS011;51970;53.484;49.488;2023-07-24T08:04:22;8.35;;;4.30;;
65368;SDS011;51970;53.484;49.488;2023-07-24T08:06:48;9.15;;;4.53;;
65368;SDS011;51970;53.484;49.488;2023-07-24T08:09:14;9.10;;;4.65;;
65368;SDS011;51970;53.484;49.488;2023-07-24T08:11:41;10.85;;;3.10;;
65368;SDS011;51970;53.484;49.488;2023-07-24T08:14:08;7.55;;;4.70;;
65368;SDS011;51970;53.484;49.488;2023-07-24T08:16:34;8.68;;;5.10;;
65368;SDS011;51970;53.484;49.488;2023-07-24T08:19:00;6.57;;;4.22;;
65368;SDS011;51970;53.484;49.488;2023-07-24T08:21:26;10.55;;;4.80;;
65368;SDS011;51970;53.484;49.488;2023-07-24T08:23:52;7.63;;;4.28;;
65368;SDS011;51970;53.484;49.488;2023-07-24T08:26:19;10.07;;;5.57;;
65368;SDS011;51970;53.484;49.488;2023-07-24T08:28:45;9.70;;;5.07;;
65368;SDS011;51970;53.484;49.488;2023-07-24T08:31:11;7.25;;;5.30;;
65368;SDS011;51970;53.484;49.488;2023-07-24T08:33:37;12.35;;;4.90;;
65368;SDS011;51970;53.484;49.488;2023-07-24T08:36:07;6.93;;;2.22;;
65368;SDS011;51970;53.484;49.488;2023-07-24T08:38:36;9.63;;;4.95;;
65368;SDS011;51970;53.484;49.488;2023-07-24T08:41:04;6.07;;;2.80;;
65368;SDS011;51970;53.484;49.488;2023-07-24T08:43:33;8.18;;;5.32;;
65368;SDS011;51970;53.484;49.488;2023-07-24T08:46:01;7.50;;;5.43;;
65368;SDS011;51970;53.484;49.488;2023-07-24T08:48:32;6.63;;;4.70;;
65368;SDS011;51970;53.484;49.488;2023-07-24T08:51:02;10.23;;;5.00;;
65368;SDS011;51970;53.484;49.488;2023-07-24T08:53:29;7.82;;;5.07;;
65368;SDS011;51970;53.484;49.488;2023-07-24T08:55:58;6.88;;;4.65;;
65368;SDS011;51970;53.484;49.488;2023-07-24T08:58:25;9.27;;;5.32;;
65368;SDS011;51970;53.484;49.488;2023-07-24T09:00:51;8.15;;;4.78;;
65368;SDS011;51970;53.484;49.488;2023-07-24T09:03:18;7.82;;;5.10;;
65368;SDS011;51970;53.484;49.488;2023-07-24T09:05:45;7.82;;;5.07;;
65368;SDS011;51970;53.484;49.488;2023-07-24T09:08:12;6.30;;;2.80;;
65368;SDS011;51970;53.484;49.488;2023-07-24T09:10:39;8.52;;;5.18;;
65368;SDS011;51970;53.484;49.488;2023-07-24T09:13:05;7.30;;;4.28;;
65368;SDS011;51970;53.484;49.488;2023-07-24T09:15:41;9.70;;;5.28;;
65368;SDS011;51970;53.484;49.488;2023-07-24T09:18:09;7.45;;;4.88;;
65368;SDS011;51970;53.484;49.488;2023-07-24T09:20:39;10.55;;;5.45;;
65368;SDS011;51970;53.484;49.488;2023-07-24T09:23:07;11.23;;;5.30;;
65368;SDS011;51970;53.484;49.488;2023-07-24T09:25:35;8.27;;;5.13;;
65368;SDS011;51970;53.484;49.488;2023-07-24T09:28:10;13.27;;;5.55;;
65368;SDS011;51970;53.484;49.488;2023-07-24T09:30:41;11.85;;;6.65;;
65368;SDS011;51970;53.484;49.488;2023-07-24T09:33:16;16.60;;;5.50;;
65368;SDS011;51970;53.484;49.488;2023-07-24T09:35:43;9.93;;;4.78;;
65368;SDS011;51970;53.484;49.488;2023-07-24T09:38:09;11.13;;;6.45;;
65368;SDS011;51970;53.484;49.488;2023-07-24T09:40:38;9.48;;;4.43;;
65368;SDS011;51970;53.484;49.488;2023-07-24T09:43:23;9.60;;;4.25;;
65368;SDS011;51970;53.484;49.488;2023-07-24T09:45:51;6.97;;;4.57;;
65368;SDS011;51970;53.484;49.488;2023-07-24T09:48:19;9.98;;;4.40;;
65368;SDS011;51970;53.484;49.488;2023-07-24T09:50:49;6.85;;;4.72;;
65368;SDS011;51970;53.484;49.488;2023-07-24T09:53:24;7.97;;;4.38;;
65368;SDS011;51970;53.484;49.488;2023-07-24T09:58:22;8.60;;;5.05;;
65368;SDS011;51970;53.484;49.488;2023-07-24T10:00:50;7.85;;;5.07;;
65368;SDS011;51970;53.484;49.488;2023-07-24T10:03:16;9.35;;;5.35;;
65368;SDS011;51970;53.484;49.488;2023-07-24T10:05:43;7.38;;;4.72;;
65368;SDS011;51970;53.484;49.488;2023-07-24T10:08:12;10.40;;;5.18;;
65368;SDS011;51970;53.484;49.488;2023-07-24T10:10:40;9.07;;;5.05;;
65368;SDS011;51970;53.484;49.488;2023-07-24T10:13:06;8.68;;;4.40;;
65368;SDS011;51970;53.484;49.488;2023-07-24T10:15:37;6.43;;;4.03;;
65368;SDS011;51970;53.484;49.488;2023-07-24T10:18:05;7.80;;;5.05;;
65368;SDS011;51970;53.484;49.488;2023-07-24T10:20:36;7.25;;;4.07;;
65368;SDS011;51970;53.484;49.488;2023-07-24T10:23:04;11.38;;;5.20;;
65368;SDS011;51970;53.484;49.488;2023-07-24T10:25:33;6.75;;;4.38;;
65368;SDS011;51970;53.484;49.488;2023-07-24T10:28:02;6.97;;;4.65;;
65368;SDS011;51970;53.484;49.488;2023-07-24T10:30:35;13.68;;;4.90;;
65368;SDS011;51970;53.484;49.488;2023-07-24T10:33:18;13.38;;;3.97;;
65368;SDS011;51970;53.484;49.488;2023-07-24T10:35:47;7.75;;;4.20;;
65368;SDS011;51970;53.484;49.488;2023-07-24T10:38:16;14.88;;;4.70;;
65368;SDS011;51970;53.484;49.488;2023-07-24T10:40:44;8.30;;;3.42;;
65368;SDS011;51970;53.484;49.488;2023-07-24T10:43:12;10.68;;;4.80;;
65368;SDS011;51970;53.484;49.488;2023-07-24T10:48:12;10.07;;;4.68;;
65368;SDS011;51970;53.484;49.488;2023-07-24T10:50:43;6.97;;;4.53;;
65368;SDS011;51970;53.484;49.488;2023-07-24T10:53:11;8.85;;;4.63;;
65368;SDS011;51970;53.484;49.488;2023-07-24T10:55:39;9.50;;;4.57;;
65368;SDS011;51970;53.484;49.488;2023-07-24T10:58:05;6.07;;;2.83;;
65368;SDS011;51970;53.484;49.488;2023-07-24T11:00:32;9.05;;;3.80;;
65368;SDS011;51970;53.484;49.488;2023-07-24T11:02:58;6.72;;;4.03;;
65368;SDS011;51970;53.484;49.488;2023-07-24T11:05:24;7.18;;;2.47;;
65368;SDS011;51970;53.484;49.488;2023-07-24T11:07:51;6.25;;;3.95;;
65368;SDS011;51970;53.484;49.488;2023-07-24T11:10:18;8.38;;;3.90;;
65368;SDS011;51970;53.484;49.488;2023-07-24T11:12:46;8.73;;;4.88;;
65368;SDS011;51970;53.484;49.488;2023-07-24T11:15:12;9.32;;;4.00;;
65368;SDS011;51970;53.484;49.488;2023-07-24T11:17:40;8.82;;;4.60;;
65368;SDS011;51970;53.484;49.488;2023-07-24T11:20:11;6.50;;;4.32;;
65368;SDS011;51970;53.484;49.488;2023-07-24T11:22:39;9.35;;;5.00;;
65368;SDS011;51970;53.484;49.488;2023-07-24T11:25:07;10.38;;;4.22;;
65368;SDS011;51970;53.484;49.488;2023-07-24T11:27:41;6.57;;;3.92;;
65368;SDS011;51970;53.484;49.488;2023-07-24T11:30:10;6.60;;;4.25;;
65368;SDS011;51970;53.484;49.488;2023-07-24T11:32:38;6.82;;;4.53;;
65368;SDS011;51970;53.484;49.488;2023-07-24T11:35:08;10.15;;;3.70;;
65368;SDS011;51970;53.484;49.488;2023-07-24T11:37:35;8.15;;;4.05;;
65368;SDS011;51970;53.484;49.488;2023-07-24T11:40:03;7.07;;;4.05;;
65368;SDS011;51970;53.484;49.488;2023-07-24T11:42:42;7.13;;;4.05;;
65368;SDS011;51970;53.484;49.488;2023-07-24T11:45:10;7.55;;;3.78;;
65368;SDS011;51970;53.484;49.488;2023-07-24T11:47:41;8.90;;;4.43;;
65368;SDS011;51970;53.484;49.488;2023-07-24T11:50:07;6.10;;;4.22;;
65368;SDS011;51970;53.484;49.488;2023-07-24T11:52:38;6.53;;;3.28;;
65368;SDS011;51970;53.484;49.488;2023-07-24T11:55:06;7.70;;;4.03;;
65368;SDS011;51970;53.484;49.488;2023-07-24T11:57:33;6.72;;;3.90;;
65368;SDS011;51970;53.484;49.488;2023-07-24T11:59:59;7.80;;;3.85;;
65368;SDS011;51970;53.484;49.488;2023-07-24T12:02:26;7.05;;;4.43;;
65368;SDS011;51970;53.484;49.488;2023-07-24T12:04:54;6.50;;;4.03;;
65368;SDS011;51970;53.484;49.488;2023-07-24T12:07:23;6.63;;;4.72;;
65368;SDS011;51970;53.484;49.488;2023-07-24T12:10:00;9.20;;;5.25;;
65368;SDS011;51970;53.484;49.488;2023-07-24T12:12:37;7.18;;;4.28;;
65368;SDS011;51970;53.484;49.488;2023-07-24T12:15:04;10.73;;;4.28;;
65368;SDS011;51970;53.484;49.488;2023-07-24T12:17:31;8.90;;;4.22;;
65368;SDS011;51970;53.484;49.488;2023-07-24T12:19:57;8.25;;;4.55;;
65368;SDS011;51970;53.484;49.488;2023-07-24T12:22:24;6.18;;;4.20;;
65368;SDS011;51970;53.484;49.488;2023-07-24T12:24:50;9.23;;;4.35;;
65368;SDS011;51970;53.484;49.488;2023-07-24T12:27:16;8.82;;;5.38;;
65368;SDS011;51970;53.484;49.488;2023-07-24T12:29:43;6.60;;;3.67;;
65368;SDS011;51970;53.484;49.488;2023-07-24T12:32:09;14.68;;;4.30;;
65368;SDS011;51970;53.484;49.488;2023-07-24T12:34:35;8.65;;;4.22;;
65368;SDS011;51970;53.484;49.488;2023-07-24T12:37:01;6.15;;;3.95;;
65368;SDS011;51970;53.484;49.488;2023-07-24T12:39:27;8.93;;;4.35;;
65368;SDS011;51970;53.484;49.488;2023-07-24T12:41:54;8.57;;;2.72;;
65368;SDS011;51970;53.484;49.488;2023-07-24T12:44:20;11.35;;;4.68;;
65368;SDS011;51970;53.484;49.488;2023-07-24T12:46:46;8.57;;;3.25;;
65368;SDS011;51970;53.484;49.488;2023-07-24T12:49:13;14.73;;;4.63;;
65368;SDS011;51970;53.484;49.488;2023-07-24T12:51:39;41.33;;;4.53;;
65368;SDS011;51970;53.484;49.488;2023-07-24T12:54:05;10.23;;;4.07;;
65368;SDS011;51970;53.484;49.488;2023-07-24T12:56:32;7.32;;;4.78;;
65368;SDS011;51970;53.484;49.488;2023-07-24T12:58:58;9.65;;;4.75;;
65368;SDS011;51970;53.484;49.488;2023-07-24T13:01:24;9.25;;;4.30;;
65368;SDS011;51970;53.484;49.488;2023-07-24T13:03:50;12.13;;;4.38;;
65368;SDS011;51970;53.484;49.488;2023-07-24T13:06:16;16.23;;;5.03;;
65368;SDS011;51970;53.484;49.488;2023-07-24T13:08:43;16.55;;;5.20;;
65368;SDS011;51970;53.484;49.488;2023-07-24T13:11:09;14.32;;;5.45;;
65368;SDS011;51970;53.484;49.488;2023-07-24T13:13:35;11.23;;;4.82;;
65368;SDS011;51970;53.484;49.488;2023-07-24T13:16:02;8.40;;;3.28;;
65368;SDS011;51970;53.484;49.488;2023-07-24T13:18:29;9.35;;;5.38;;
65368;SDS011;51970;53.484;49.488;2023-07-24T13:20:55;7.93;;;5.28;;
65368;SDS011;51970;53.484;49.488;2023-07-24T13:23:22;8.80;;;5.43;;
65368;SDS011;51970;53.484;49.488;2023-07-24T13:25:48;9.38;;;5.68;;
65368;SDS011;51970;53.484;49.488;2023-07-24T13:28:16;9.88;;;5.93;;
65368;SDS011;51970;53.484;49.488;2023-07-24T13:30:43;8.73;;;5.03;;
65368;SDS011;51970;53.484;49.488;2023-07-24T13:33:09;9.00;;;5.93;;
65368;SDS011;51970;53.484;49.488;2023-07-24T13:35:36;7.85;;;3.65;;
65368;SDS011;51970;53.484;49.488;2023-07-24T13:38:02;9.20;;;5.32;;
65368;SDS011;51970;53.484;49.488;2023-07-24T13:40:29;7.63;;;4.85;;
65368;SDS011;51970;53.484;49.488;2023-07-24T13:42:55;11.25;;;4.93;;
65368;SDS011;51970;53.484;49.488;2023-07-24T13:45:21;10.52;;;5.28;;
65368;SDS011;51970;53.484;49.488;2023-07-24T13:47:48;14.95;;;6.40;;
65368;SDS011;51970;53.484;49.488;2023-07-24T13:50:14;8.80;;;6.07;;
65368;SDS011;51970;53.484;49.488;2023-07-24T13:52:40;12.65;;;7.43;;
65368;SDS011;51970;53.484;49.488;2023-07-24T13:55:06;16.45;;;7.95;;
65368;SDS011;51970;53.484;49.488;2023-07-24T13:57:33;11.05;;;6.90;;
65368;SDS011;51970;53.484;49.488;2023-07-24T13:59:59;13.27;;;7.85;;
65368;SDS011;51970;53.484;49.488;2023-07-24T14:02:26;12.25;;;7.90;;
65368;SDS011;51970;53.484;49.488;2023-07-24T14:04:52;11.20;;;6.47;;
65368;SDS011;51970;53.484;49.488;2023-07-24T14:07:19;11.23;;;6.32;;
65368;SDS011;51970;53.484;49.488;2023-07-24T14:09:45;9.60;;;5.15;;
65368;SDS011;51970;53.484;49.488;2023-07-24T14:12:11;8.68;;;6.07;;
65368;SDS011;51970;53.484;49.488;2023-07-24T14:14:37;8.10;;;5.20;;
65368;SDS011;51970;53.484;49.488;2023-07-24T14:17:04;8.70;;;3.28;;
65368;SDS011;51970;53.484;49.488;2023-07-24T14:19:32;7.40;;;4.85;;
65368;SDS011;51970;53.484;49.488;2023-07-24T14:21:59;10.00;;;5.95;;
65368;SDS011;51970;53.484;49.488;2023-07-24T14:24:25;8.93;;;6.15;;
65368;SDS011;51970;53.484;49.488;2023-07-24T14:26:51;10.23;;;6.28;;
65368;SDS011;51970;53.484;49.488;2023-07-24T14:29:17;8.65;;;5.53;;
65368;SDS011;51970;53.484;49.488;2023-07-24T14:31:44;8.90;;;6.72;;
65368;SDS011;51970;53.484;49.488;2023-07-24T14:34:10;10.07;;;6.30;;
65368;SDS011;51970;53.484;49.488;2023-07-24T14:36:38;11.98;;;6.60;;
65368;SDS011;51970;53.484;49.488;2023-07-24T14:39:04;10.40;;;6.43;;